createdAt,value
2018-03-14T00:02:13.043Z,4.30
2018-03-14T00:04:40.824Z,4.30
2018-03-14T00:07:09.053Z,4.30
2018-03-14T00:09:37.208Z,4.30
2018-03-14T00:12:04.687Z,4.30
2018-03-14T00:14:32.154Z,4.30
2018-03-14T00:16:59.606Z,4.20
2018-03-14T00:19:27.588Z,4.20
2018-03-14T00:21:55.070Z,4.10
2018-03-14T00:24:23.289Z,4.00
2018-03-14T00:26:53.218Z,4.00
2018-03-14T00:29:20.731Z,4.00
2018-03-14T00:31:48.189Z,4.00
2018-03-14T00:34:15.642Z,4.00
2018-03-14T00:36:43.104Z,4.00
2018-03-14T00:39:10.572Z,4.00
2018-03-14T00:41:38.035Z,4.00
2018-03-14T00:44:05.498Z,4.00
2018-03-14T00:46:32.948Z,4.10
2018-03-14T00:49:00.829Z,4.10
2018-03-14T00:51:28.281Z,4.10
2018-03-14T00:53:55.878Z,4.10
2018-03-14T00:56:23.330Z,4.10
2018-03-14T00:58:50.784Z,4.20
2018-03-14T01:01:18.245Z,4.20
2018-03-14T01:03:45.693Z,4.30
2018-03-14T01:06:13.290Z,4.30
2018-03-14T01:08:41.049Z,4.20
2018-03-14T01:11:10.278Z,4.20
2018-03-14T01:13:38.730Z,4.20
2018-03-14T01:16:06.177Z,4.30
2018-03-14T01:18:34.790Z,4.20
2018-03-14T01:21:02.246Z,4.20
2018-03-14T01:23:29.701Z,4.20
2018-03-14T01:25:57.153Z,4.20
2018-03-14T01:28:24.612Z,4.10
2018-03-14T01:30:52.057Z,4.10
2018-03-14T01:33:20.214Z,4.10
2018-03-14T01:35:48.430Z,4.00
2018-03-14T01:38:15.878Z,4.00
2018-03-14T01:40:43.337Z,4.00
2018-03-14T01:43:11.101Z,4.00
2018-03-14T01:45:38.970Z,4.10
2018-03-14T01:48:06.422Z,4.00
2018-03-14T01:50:35.296Z,4.00
2018-03-14T01:53:14.750Z,4.00
2018-03-14T01:55:42.205Z,4.00
2018-03-14T01:58:09.661Z,4.00
2018-03-14T02:00:37.701Z,4.00
2018-03-14T02:03:06.217Z,4.00
2018-03-14T02:05:34.116Z,4.00
2018-03-14T02:08:02.390Z,4.00
2018-03-14T02:10:29.862Z,4.00
2018-03-14T02:12:57.314Z,3.90
2018-03-14T02:15:24.769Z,3.90
2018-03-14T02:17:53.679Z,3.90
2018-03-14T02:20:21.899Z,3.90
2018-03-14T02:22:49.358Z,3.90
2018-03-14T02:25:16.823Z,3.90
2018-03-14T02:27:44.274Z,3.80
2018-03-14T02:30:11.742Z,3.80
2018-03-14T02:32:39.195Z,3.80
2018-03-14T02:35:06.641Z,3.80
2018-03-14T02:37:34.097Z,3.80
2018-03-14T02:40:01.550Z,3.80
2018-03-14T02:42:29.004Z,3.70
2018-03-14T02:44:56.460Z,3.60
2018-03-14T02:47:24.371Z,3.50
2018-03-14T02:49:51.818Z,3.40
2018-03-14T02:52:19.281Z,3.30
2018-03-14T02:54:46.717Z,3.20
2018-03-14T02:57:14.176Z,3.10
2018-03-14T02:59:41.625Z,3.00
2018-03-14T03:02:09.078Z,3.00
2018-03-14T03:04:36.789Z,3.00
2018-03-14T03:07:04.226Z,3.00
2018-03-14T03:09:31.686Z,3.00
2018-03-14T03:11:59.813Z,3.10
2018-03-14T03:14:27.278Z,3.20
2018-03-14T03:16:54.722Z,3.20
2018-03-14T03:19:22.175Z,3.30
2018-03-14T03:21:49.629Z,3.30
2018-03-14T03:24:17.521Z,3.40
2018-03-14T03:26:44.978Z,3.40
2018-03-14T03:29:12.541Z,3.50
2018-03-14T03:31:39.994Z,3.50
2018-03-14T03:34:08.218Z,3.50
2018-03-14T03:36:36.424Z,3.60
2018-03-14T03:39:03.877Z,3.60
2018-03-14T03:41:32.500Z,3.60
2018-03-14T03:43:59.943Z,3.60
2018-03-14T03:46:27.402Z,3.60
2018-03-14T03:48:54.840Z,3.50
2018-03-14T03:51:22.306Z,3.60
2018-03-14T03:53:49.749Z,3.60
2018-03-14T03:56:17.204Z,3.60
2018-03-14T03:58:44.777Z,3.50
2018-03-14T04:01:12.218Z,3.60
2018-03-14T04:03:39.675Z,3.60
2018-03-14T04:06:07.129Z,3.60
2018-03-14T04:08:34.590Z,3.60
2018-03-14T04:11:02.042Z,3.60
2018-03-14T04:13:29.502Z,3.60
2018-03-14T04:15:56.941Z,3.60
2018-03-14T04:18:24.390Z,3.60
2018-03-14T04:20:53.007Z,3.60
2018-03-14T04:23:20.568Z,3.50
2018-03-14T04:25:48.029Z,3.60
2018-03-14T04:28:15.983Z,3.50
2018-03-14T04:30:43.814Z,3.50
2018-03-14T04:33:12.024Z,3.50
2018-03-14T04:35:39.881Z,3.50
2018-03-14T04:38:07.335Z,3.50
2018-03-14T04:40:34.812Z,3.50
2018-03-14T04:43:02.260Z,3.50
2018-03-14T04:45:29.709Z,3.50
2018-03-14T04:47:57.349Z,3.50
2018-03-14T04:50:24.812Z,3.50
2018-03-14T04:52:52.282Z,3.50
2018-03-14T04:55:19.721Z,3.50
2018-03-14T04:57:47.177Z,3.50
2018-03-14T05:00:14.651Z,3.50
2018-03-14T05:02:42.093Z,3.50
2018-03-14T05:05:09.601Z,3.50
2018-03-14T05:07:37.051Z,3.50
2018-03-14T05:10:04.505Z,3.50
2018-03-14T05:12:31.953Z,3.50
2018-03-14T05:15:00.227Z,3.50
2018-03-14T05:17:27.681Z,3.50
2018-03-14T05:19:55.947Z,3.60
2018-03-14T05:22:23.440Z,3.60
2018-03-14T05:24:51.716Z,3.60
2018-03-14T05:27:19.169Z,3.60
2018-03-14T05:29:46.629Z,3.60
2018-03-14T05:32:14.527Z,3.60
2018-03-14T05:34:42.784Z,3.60
2018-03-14T05:37:10.806Z,3.60
2018-03-14T05:39:38.279Z,3.50
2018-03-14T05:42:05.725Z,3.50
2018-03-14T05:44:33.286Z,3.60
2018-03-14T05:47:00.741Z,3.50
2018-03-14T05:49:28.218Z,3.60
2018-03-14T05:51:55.665Z,3.60
2018-03-14T05:54:23.109Z,3.60
2018-03-14T05:56:50.574Z,3.50
2018-03-14T05:59:18.565Z,3.60
2018-03-14T06:01:46.787Z,3.60
2018-03-14T06:04:14.773Z,3.60
2018-03-14T06:06:42.261Z,3.60
2018-03-14T06:09:09.720Z,3.60
2018-03-14T06:11:37.439Z,3.60
2018-03-14T06:14:04.885Z,3.70
2018-03-14T06:16:32.337Z,3.70
2018-03-14T06:18:59.793Z,3.70
2018-03-14T06:21:28.018Z,3.80
2018-03-14T06:23:55.475Z,3.80
2018-03-14T06:26:22.929Z,3.80
2018-03-14T06:28:51.613Z,3.90
2018-03-14T06:31:19.597Z,3.90
2018-03-14T06:33:47.838Z,4.00
2018-03-14T06:36:15.304Z,4.00
2018-03-14T06:38:43.160Z,4.10
2018-03-14T06:41:10.608Z,4.20
2018-03-14T06:43:38.069Z,4.30
2018-03-14T06:46:05.514Z,4.30
2018-03-14T06:48:32.966Z,4.30
2018-03-14T06:51:00.628Z,4.40
2018-03-14T06:53:28.543Z,4.50
2018-03-14T06:55:56.073Z,4.60
2018-03-14T06:58:35.345Z,4.70
2018-03-14T07:01:14.842Z,4.70
2018-03-14T07:03:54.246Z,4.80
2018-03-14T07:06:22.470Z,5.00
2018-03-14T07:08:50.827Z,5.00
2018-03-14T07:11:18.274Z,5.10
2018-03-14T07:13:45.722Z,5.20
2018-03-14T07:16:13.182Z,5.30
2018-03-14T07:18:40.639Z,5.40
2018-03-14T07:21:08.082Z,5.40
2018-03-14T07:23:36.302Z,5.80
2018-03-14T07:26:03.755Z,5.80
2018-03-14T07:28:31.255Z,6.10
2018-03-14T07:30:59.108Z,6.30
2018-03-14T07:33:26.553Z,6.50
2018-03-14T07:35:56.306Z,6.70
2018-03-14T07:38:24.529Z,7.00
2018-03-14T07:40:51.973Z,7.00
2018-03-14T07:43:19.444Z,7.30
2018-03-14T07:45:47.457Z,7.50
2018-03-14T07:48:15.668Z,7.60
2018-03-14T07:50:43.117Z,7.60
2018-03-14T07:53:10.575Z,8.00
2018-03-14T07:55:38.069Z,8.60
2018-03-14T07:58:05.513Z,9.40
2018-03-14T08:00:33.562Z,10.40
2018-03-14T08:03:01.130Z,10.70
2018-03-14T08:05:29.224Z,10.80
2018-03-14T08:07:56.678Z,10.40
2018-03-14T08:10:24.649Z,9.70
2018-03-14T08:12:52.105Z,9.40
2018-03-14T08:15:19.571Z,8.90
2018-03-14T08:17:47.066Z,8.90
2018-03-14T08:20:14.513Z,9.00
2018-03-14T08:22:42.735Z,9.00
2018-03-14T08:25:10.722Z,9.00
2018-03-14T08:27:46.548Z,8.90
2018-03-14T08:30:14.712Z,9.10
2018-03-14T08:32:42.174Z,9.10
2018-03-14T08:35:09.662Z,9.40
2018-03-14T08:37:37.238Z,9.60
2018-03-14T08:40:04.774Z,9.80
2018-03-14T08:42:33.016Z,10.20
2018-03-14T08:45:00.509Z,10.40
2018-03-14T08:47:27.969Z,10.40
2018-03-14T08:49:55.424Z,10.20
2018-03-14T08:52:23.249Z,10.20
2018-03-14T08:54:50.738Z,9.90
2018-03-14T08:57:18.608Z,10.20
2018-03-14T08:59:47.773Z,10.60
2018-03-14T09:02:15.661Z,11.00
2018-03-14T09:04:43.632Z,11.50
2018-03-14T09:07:11.107Z,11.70
2018-03-14T09:09:41.058Z,11.90
2018-03-14T09:12:09.272Z,11.40
2018-03-14T09:14:36.747Z,11.40
2018-03-14T09:17:04.301Z,10.90
2018-03-14T09:19:31.769Z,10.40
2018-03-14T09:21:59.225Z,10.20
2018-03-14T09:24:26.678Z,10.00
2018-03-14T09:26:54.464Z,9.70
2018-03-14T09:29:22.254Z,9.50
2018-03-14T09:31:49.740Z,9.90
2018-03-14T09:34:17.173Z,10.30
2018-03-14T09:36:44.619Z,10.50
2018-03-14T09:39:12.226Z,10.60
2018-03-14T09:41:39.689Z,10.80
2018-03-14T09:44:07.246Z,10.80
2018-03-14T09:46:34.697Z,10.60
2018-03-14T09:49:02.870Z,10.60
2018-03-14T09:51:30.345Z,10.70
2018-03-14T09:53:57.778Z,10.80
2018-03-14T09:56:25.441Z,10.90
2018-03-14T09:58:53.582Z,10.80
2018-03-14T10:01:21.085Z,11.00
2018-03-14T10:03:48.547Z,11.40
2018-03-14T10:06:16.713Z,11.40
2018-03-14T10:08:44.581Z,11.50
2018-03-14T10:11:12.046Z,11.90
2018-03-14T10:13:40.865Z,12.90
2018-03-14T10:16:08.377Z,13.30
2018-03-14T10:18:35.933Z,13.70
2018-03-14T10:21:03.413Z,13.60
2018-03-14T10:23:30.953Z,14.10
2018-03-14T10:25:58.433Z,15.10
2018-03-14T10:28:26.590Z,15.90
2018-03-14T10:30:54.898Z,16.30
2018-03-14T10:33:23.110Z,15.90
2018-03-14T10:35:50.566Z,15.90
2018-03-14T10:38:18.678Z,15.30
2018-03-14T10:40:46.663Z,15.40
2018-03-14T10:43:14.913Z,15.10
2018-03-14T10:45:42.458Z,15.10
2018-03-14T10:48:09.922Z,14.90
2018-03-14T10:50:37.377Z,15.50
2018-03-14T10:53:04.934Z,16.50
2018-03-14T10:55:32.414Z,17.10
2018-03-14T10:57:59.878Z,17.80
2018-03-14T11:00:27.325Z,18.20
2018-03-14T11:03:04.019Z,17.60
2018-03-14T11:05:32.242Z,18.00
2018-03-14T11:08:00.523Z,18.00
2018-03-14T11:10:27.978Z,18.00
2018-03-14T11:12:57.888Z,19.20
2018-03-14T11:15:27.920Z,19.40
2018-03-14T11:17:55.941Z,19.00
2018-03-14T11:20:23.984Z,18.00
2018-03-14T11:22:51.970Z,17.90
2018-03-14T11:25:20.411Z,18.50
2018-03-14T11:27:47.884Z,18.40
2018-03-14T11:30:16.409Z,18.70
2018-03-14T11:32:43.855Z,17.90
2018-03-14T11:35:11.915Z,17.10
2018-03-14T11:37:40.250Z,15.10
2018-03-14T11:40:08.232Z,15.10
2018-03-14T11:42:35.989Z,14.60
2018-03-14T11:45:04.446Z,15.00
2018-03-14T11:47:31.979Z,16.30
2018-03-14T11:49:59.428Z,16.80
2018-03-14T11:52:26.912Z,16.50
2018-03-14T11:54:54.615Z,17.50
2018-03-14T11:57:22.590Z,18.60
2018-03-14T11:59:50.344Z,18.30
2018-03-14T12:02:18.786Z,18.60
2018-03-14T12:04:46.901Z,18.40
2018-03-14T12:07:14.871Z,18.00
2018-03-14T12:09:42.733Z,17.60
2018-03-14T12:12:10.187Z,17.30
2018-03-14T12:14:38.461Z,17.30
2018-03-14T12:17:06.521Z,17.10
2018-03-14T12:19:34.385Z,17.00
2018-03-14T12:22:02.181Z,17.00
2018-03-14T12:24:30.969Z,17.10
2018-03-14T12:26:59.198Z,17.50
2018-03-14T12:29:26.673Z,17.50
2018-03-14T12:31:54.126Z,17.70
2018-03-14T12:34:21.586Z,17.60
2018-03-14T12:36:49.860Z,18.00
2018-03-14T12:39:17.794Z,18.00
2018-03-14T12:41:45.245Z,18.00
2018-03-14T12:44:12.707Z,18.70
2018-03-14T12:46:40.198Z,18.80
2018-03-14T12:49:08.182Z,19.60
2018-03-14T12:51:35.724Z,19.50
2018-03-14T12:54:03.222Z,19.80
2018-03-14T12:56:31.079Z,19.60
2018-03-14T12:58:59.300Z,17.80
2018-03-14T13:01:26.776Z,17.70
2018-03-14T13:03:54.229Z,18.30
2018-03-14T13:06:21.797Z,18.30
2018-03-14T13:08:49.248Z,18.50
2018-03-14T13:11:16.911Z,19.10
2018-03-14T13:13:44.364Z,19.20
2018-03-14T13:16:11.817Z,19.90
2018-03-14T13:18:39.817Z,21.10
2018-03-14T13:21:08.086Z,21.90
2018-03-14T13:23:35.932Z,21.80
2018-03-14T13:26:03.493Z,20.60
2018-03-14T13:28:31.751Z,19.40
2018-03-14T13:30:59.200Z,19.30
2018-03-14T13:33:27.470Z,20.00
2018-03-14T13:35:54.928Z,20.40
2018-03-14T13:38:22.859Z,19.50
2018-03-14T13:40:51.121Z,18.30
2018-03-14T13:43:20.351Z,18.30
2018-03-14T13:45:48.639Z,17.90
2018-03-14T13:48:16.081Z,17.30
2018-03-14T13:50:43.550Z,17.20
2018-03-14T13:53:11.010Z,16.70
2018-03-14T13:55:38.785Z,15.70
2018-03-14T13:58:06.221Z,15.00
2018-03-14T14:00:34.149Z,14.80
2018-03-14T14:03:02.100Z,15.20
2018-03-14T14:05:30.522Z,15.10
2018-03-14T14:07:58.749Z,14.90
2018-03-14T14:10:26.309Z,14.90
2018-03-14T14:12:53.777Z,15.00
2018-03-14T14:15:21.333Z,14.90
2018-03-14T14:17:48.851Z,14.50
2018-03-14T14:20:16.298Z,14.00
2018-03-14T14:22:43.838Z,13.60
2018-03-14T14:25:12.058Z,12.70
2018-03-14T14:27:40.082Z,12.70
2018-03-14T14:30:08.345Z,12.50
2018-03-14T14:32:35.790Z,12.50
2018-03-14T14:35:03.253Z,14.10
2018-03-14T14:37:30.834Z,16.40
2018-03-14T14:39:59.527Z,16.90
2018-03-14T14:42:27.240Z,16.90
2018-03-14T14:44:54.725Z,15.50
2018-03-14T14:47:22.180Z,14.10
2018-03-14T14:49:49.817Z,13.20
2018-03-14T14:52:17.288Z,12.60
2018-03-14T14:54:44.733Z,12.20
2018-03-14T14:57:12.195Z,12.20
2018-03-14T14:59:39.647Z,12.40
2018-03-14T15:02:07.202Z,12.20
2018-03-14T15:04:35.033Z,12.60
2018-03-14T15:07:02.938Z,13.60
2018-03-14T15:09:30.413Z,14.10
2018-03-14T15:11:59.105Z,14.70
2018-03-14T15:14:27.328Z,15.50
2018-03-14T15:16:54.774Z,15.50
2018-03-14T15:19:22.782Z,15.70
2018-03-14T15:21:50.248Z,16.10
2018-03-14T15:24:17.697Z,15.80
2018-03-14T15:26:45.152Z,15.20
2018-03-14T15:29:13.919Z,14.20
2018-03-14T15:31:41.368Z,14.40
2018-03-14T15:34:08.922Z,15.50
2018-03-14T15:36:37.109Z,14.90
2018-03-14T15:39:04.654Z,14.80
2018-03-14T15:41:32.121Z,15.30
2018-03-14T15:43:59.968Z,16.00
2018-03-14T15:46:29.315Z,16.20
2018-03-14T15:48:57.659Z,16.10
2018-03-14T15:51:25.442Z,16.00
2018-03-14T15:53:52.898Z,15.80
2018-03-14T15:56:20.362Z,15.80
2018-03-14T15:58:47.805Z,15.80
2018-03-14T16:01:15.276Z,16.10
2018-03-14T16:03:43.496Z,14.90
2018-03-14T16:06:10.962Z,14.80
2018-03-14T16:08:38.890Z,14.40
2018-03-14T16:11:06.837Z,14.30
2018-03-14T16:13:34.697Z,14.10
2018-03-14T16:16:02.980Z,14.10
2018-03-14T16:18:31.003Z,14.00
2018-03-14T16:20:58.892Z,13.60
2018-03-14T16:23:26.925Z,13.10
2018-03-14T16:25:55.973Z,11.60
2018-03-14T16:28:23.448Z,11.60
2018-03-14T16:30:50.881Z,11.10
2018-03-14T16:33:19.137Z,10.70
2018-03-14T16:35:46.853Z,10.50
2018-03-14T16:38:15.817Z,10.10
2018-03-14T16:40:43.817Z,10.10
2018-03-14T16:43:12.047Z,9.80
2018-03-14T16:45:40.047Z,9.70
2018-03-14T16:48:08.297Z,9.60
2018-03-14T16:50:35.741Z,9.40
2018-03-14T16:53:03.206Z,9.30
2018-03-14T16:55:30.662Z,9.20
2018-03-14T16:57:58.113Z,9.10
2018-03-14T17:00:26.294Z,9.00
2018-03-14T17:02:53.741Z,9.00
2018-03-14T17:05:21.756Z,9.00
2018-03-14T17:07:49.771Z,9.00
2018-03-14T17:10:18.074Z,9.00
2018-03-14T17:12:47.142Z,9.00
2018-03-14T17:15:14.805Z,9.00
2018-03-14T17:17:42.262Z,8.90
2018-03-14T17:20:09.717Z,8.80
2018-03-14T17:22:37.215Z,8.80
2018-03-14T17:25:04.678Z,8.70
2018-03-14T17:27:32.548Z,8.70
2018-03-14T17:29:59.984Z,8.70
2018-03-14T17:32:27.456Z,8.60
2018-03-14T17:34:54.894Z,8.60
2018-03-14T17:37:22.367Z,8.60
2018-03-14T17:39:49.814Z,8.50
2018-03-14T17:42:17.636Z,8.50
2018-03-14T17:44:45.502Z,8.40
2018-03-14T17:47:12.943Z,8.30
2018-03-14T17:49:41.185Z,8.20
2018-03-14T17:52:08.627Z,8.20
2018-03-14T17:54:36.074Z,8.10
2018-03-14T17:57:03.530Z,8.10
2018-03-14T17:59:31.010Z,8.00
2018-03-14T18:01:58.461Z,8.00
2018-03-14T18:04:25.933Z,7.90
2018-03-14T18:06:54.769Z,7.60
2018-03-14T18:09:22.226Z,7.60
2018-03-14T18:11:49.704Z,7.50
2018-03-14T18:14:17.142Z,7.30
2018-03-14T18:16:45.211Z,7.10
2018-03-14T18:19:13.334Z,7.00
2018-03-14T18:21:40.781Z,6.90
2018-03-14T18:24:08.276Z,6.70
2018-03-14T18:26:35.804Z,6.60
2018-03-14T18:29:03.326Z,6.50
2018-03-14T18:31:30.786Z,6.50
2018-03-14T18:33:58.281Z,6.40
2018-03-14T18:36:25.728Z,6.30
2018-03-14T18:38:53.186Z,6.30
2018-03-14T18:41:20.710Z,6.20
2018-03-14T18:43:48.252Z,6.20
2018-03-14T18:46:15.729Z,6.10
2018-03-14T18:48:43.623Z,6.10
2018-03-14T18:51:11.178Z,6.00
2018-03-14T18:53:39.038Z,6.00
2018-03-14T18:56:06.501Z,5.90
2018-03-14T18:58:34.380Z,5.90
2018-03-14T19:01:01.925Z,5.90
2018-03-14T19:03:29.373Z,5.80
2018-03-14T19:05:57.213Z,5.80
2018-03-14T19:08:24.653Z,5.80
2018-03-14T19:10:52.459Z,5.70
2018-03-14T19:13:20.443Z,5.70
2018-03-14T19:15:47.889Z,5.70
2018-03-14T19:18:16.041Z,5.60
2018-03-14T19:20:44.422Z,5.50
2018-03-14T19:23:14.330Z,5.40
2018-03-14T19:25:41.810Z,5.40
2018-03-14T19:28:09.248Z,5.20
2018-03-14T19:30:36.730Z,5.10
2018-03-14T19:33:04.302Z,4.90
2018-03-14T19:35:31.750Z,4.90
2018-03-14T19:37:59.305Z,4.90
2018-03-14T19:40:26.865Z,4.80
2018-03-14T19:42:54.850Z,4.80
2018-03-14T19:45:22.993Z,4.90
2018-03-14T19:47:50.972Z,4.80
2018-03-14T19:50:18.475Z,4.80
2018-03-14T19:52:46.525Z,4.80
2018-03-14T19:55:14.745Z,4.80
2018-03-14T19:57:42.204Z,4.80
2018-03-14T20:00:09.689Z,4.70
2018-03-14T20:02:37.722Z,4.70
2018-03-14T20:05:05.592Z,4.70
2018-03-14T20:07:33.494Z,4.70
2018-03-14T20:10:00.937Z,4.60
2018-03-14T20:12:28.513Z,4.60
2018-03-14T20:14:56.068Z,4.50
2018-03-14T20:17:23.534Z,4.50
2018-03-14T20:19:51.083Z,4.50
2018-03-14T20:22:18.533Z,4.50
2018-03-14T20:24:46.008Z,4.40
2018-03-14T20:27:14.013Z,4.40
2018-03-14T20:29:41.457Z,4.40
2018-03-14T20:32:09.688Z,4.40
2018-03-14T20:34:37.169Z,4.40
2018-03-14T20:37:04.618Z,4.40
2018-03-14T20:39:32.424Z,4.30
2018-03-14T20:42:00.643Z,4.30
2018-03-14T20:44:28.661Z,4.30
2018-03-14T20:46:56.897Z,4.40
2018-03-14T20:49:25.914Z,4.30
2018-03-14T20:51:54.132Z,4.30
2018-03-14T20:54:21.597Z,4.30
2018-03-14T20:56:49.471Z,4.20
2018-03-14T20:59:16.933Z,4.20
2018-03-14T21:01:46.290Z,4.10
2018-03-14T21:04:20.972Z,4.10
2018-03-14T21:06:52.169Z,4.10
2018-03-14T21:09:19.608Z,4.00
2018-03-14T21:11:47.846Z,3.80
2018-03-14T21:14:15.286Z,3.80
2018-03-14T21:16:42.766Z,3.80
2018-03-14T21:19:13.018Z,3.70
2018-03-14T21:21:41.260Z,3.50
2018-03-14T21:24:09.191Z,3.60
2018-03-14T21:26:37.048Z,3.50
2018-03-14T21:29:04.538Z,3.60
2018-03-14T21:31:32.014Z,3.60
2018-03-14T21:33:59.466Z,3.50
2018-03-14T21:36:27.346Z,3.60
2018-03-14T21:38:54.796Z,3.60
2018-03-14T21:41:22.341Z,3.60
2018-03-14T21:43:50.581Z,3.60
2018-03-14T21:46:18.073Z,3.60
2018-03-14T21:48:45.518Z,3.50
2018-03-14T21:51:13.334Z,3.50
2018-03-14T21:53:40.765Z,3.50
2018-03-14T21:56:08.238Z,3.50
2018-03-14T21:58:37.350Z,3.50
2018-03-14T22:01:05.845Z,3.50
2018-03-14T22:03:33.763Z,3.40
2018-03-14T22:06:05.248Z,3.40
2018-03-14T22:08:33.118Z,3.30
2018-03-14T22:11:00.585Z,3.30
2018-03-14T22:13:28.106Z,3.30
2018-03-14T22:15:55.498Z,3.30
2018-03-14T22:18:22.993Z,3.20
2018-03-14T22:20:50.541Z,3.10
2018-03-14T22:23:18.002Z,3.10
2018-03-14T22:25:45.471Z,3.10
2018-03-14T22:28:12.953Z,3.00
2018-03-14T22:30:41.165Z,3.00
2018-03-14T22:33:23.263Z,3.10
2018-03-14T22:35:50.762Z,3.00
2018-03-14T22:38:18.309Z,2.90
2018-03-14T22:40:46.218Z,2.80
2018-03-14T22:43:14.441Z,2.90
2018-03-14T22:45:41.893Z,2.90
2018-03-14T22:48:09.353Z,2.90
2018-03-14T22:50:37.332Z,2.90
2018-03-14T22:53:04.789Z,2.90
2018-03-14T22:55:32.265Z,2.90
2018-03-14T22:57:59.757Z,2.80
2018-03-14T23:00:28.230Z,2.80
2018-03-14T23:02:56.454Z,2.70
2018-03-14T23:05:23.929Z,2.70
2018-03-14T23:07:52.301Z,2.60
2018-03-14T23:10:19.866Z,2.60
2018-03-14T23:12:48.124Z,2.50
2018-03-14T23:15:15.596Z,2.40
2018-03-14T23:17:44.988Z,2.30
2018-03-14T23:20:12.449Z,2.30
2018-03-14T23:22:40.717Z,2.10
2018-03-14T23:25:08.178Z,2.10
2018-03-14T23:27:36.218Z,2.00
2018-03-14T23:30:03.671Z,1.90
2018-03-14T23:32:31.142Z,1.80
2018-03-14T23:34:58.630Z,1.80
2018-03-14T23:37:26.172Z,1.80
2018-03-14T23:39:53.740Z,1.70
2018-03-14T23:42:21.296Z,1.70
2018-03-14T23:44:49.274Z,1.70
2018-03-14T23:47:17.541Z,1.70
2018-03-14T23:49:46.516Z,1.70
2018-03-14T23:52:15.068Z,1.70
2018-03-14T23:54:42.509Z,1.60
2018-03-14T23:57:11.168Z,1.60
2018-03-14T23:59:38.717Z,1.60
